Time;durP1;ratioP1;P1;durP2;ratioP2;P2;SDS_P1;SDS_P2;PMS_P1;PMS_P2;Temp;Humidity;BMP_temperature;BMP_pressure;BME280_temperature;BME280_humidity;BME280_pressure;Samples;Min_cycle;Max_cycle;Signal;HPM_P1;HPM_P2
2021/03/04 00:02:06;;;;;;;35.47;19.57;;;5.50;99.90;;;-143.91;100.00;62816.50;4982926;28;100611;-63
2021/03/04 00:04:33;;;;;;;32.37;20.07;;;5.50;99.90;;;-143.91;100.00;62816.50;4982582;28;100337;-63
2021/03/04 00:06:59;;;;;;;33.60;21.03;;;5.50;99.90;;;-143.91;100.00;62816.50;4981622;28;100068;-62
2021/03/04 00:09:26;;;;;;;35.93;21.07;;;5.60;99.90;;;-143.91;100.00;62816.50;4981138;28;101768;-62
2021/03/04 00:11:52;;;;;;;35.40;19.90;;;5.50;99.90;;;-143.91;100.00;62816.50;4982278;28;100567;-60
2021/03/04 00:14:18;;;;;;;29.97;20.50;;;5.70;99.90;;;-143.91;100.00;62816.50;4982845;28;100189;-63
2021/03/04 00:16:45;;;;;;;30.17;20.03;;;5.50;99.90;;;-143.91;100.00;62816.50;4982396;28;100273;-62
2021/03/04 00:19:11;;;;;;;33.00;19.63;;;5.50;99.90;;;-143.91;100.00;62816.50;4981772;28;101724;-63
2021/03/04 00:21:38;;;;;;;36.13;21.37;;;5.40;99.90;;;-143.91;100.00;62816.50;4982296;28;100754;-62
2021/03/04 00:24:06;;;;;;;34.13;19.10;;;5.30;99.90;;;-143.91;100.00;62816.50;4982598;28;100471;-63
2021/03/04 00:26:33;;;;;;;36.30;21.40;;;5.30;99.90;;;-143.91;100.00;62816.50;4982852;28;100412;-61
2021/03/04 00:29:00;;;;;;;32.40;19.63;;;5.40;99.90;;;-143.91;100.00;62816.50;4981767;28;101633;-61
2021/03/04 00:31:26;;;;;;;34.73;21.33;;;5.40;99.90;;;-143.91;100.00;62816.50;4981689;28;100579;-61
2021/03/04 00:33:53;;;;;;;35.37;21.33;;;5.50;99.90;;;-143.91;100.00;62816.50;4981328;28;100113;-62
2021/03/04 00:36:19;;;;;;;34.60;20.53;;;5.30;99.90;;;-143.91;100.00;62816.50;4981937;28;100474;-61
2021/03/04 00:38:46;;;;;;;29.80;19.23;;;5.30;99.90;;;-143.91;100.00;62816.50;4981513;28;101588;-62
2021/03/04 00:41:13;;;;;;;34.43;19.40;;;5.40;99.90;;;-143.91;100.00;62816.50;4981975;28;100609;-60
2021/03/04 00:43:40;;;;;;;36.23;20.33;;;5.30;99.90;;;-143.91;100.00;62816.50;4982336;28;100172;-62
2021/03/04 00:46:06;;;;;;;31.97;20.77;;;5.30;99.90;;;-143.91;100.00;62816.50;4979403;28;100191;-62
2021/03/04 00:48:33;;;;;;;31.60;20.50;;;5.40;99.90;;;-143.91;100.00;62816.50;4981960;28;101796;-61
2021/03/04 00:50:59;;;;;;;35.10;20.20;;;5.50;99.90;;;-143.91;100.00;62816.50;4982070;28;101304;-61
2021/03/04 00:53:25;;;;;;;34.00;20.97;;;5.50;99.90;;;-143.91;100.00;62816.50;4981531;28;102117;-62
2021/03/04 00:55:52;;;;;;;29.73;19.70;;;5.50;99.90;;;-143.91;100.00;62816.50;4981942;28;100556;-62
2021/03/04 00:58:19;;;;;;;32.20;20.87;;;5.60;99.90;;;-143.91;100.00;62816.50;4981469;28;100898;-61
2021/03/04 01:00:45;;;;;;;34.70;20.97;;;5.50;99.90;;;-143.91;100.00;62816.50;4981543;28;100269;-61
2021/03/04 01:03:12;;;;;;;35.67;20.77;;;5.50;99.90;;;-143.91;100.00;62816.50;4982230;28;100195;-62
2021/03/04 01:05:38;;;;;;;36.60;21.03;;;5.40;99.90;;;-143.91;100.00;62816.50;4981299;28;100432;-61
2021/03/04 01:08:05;;;;;;;28.93;20.60;;;5.70;99.90;;;-143.91;100.00;62816.50;4981711;28;100132;-61
2021/03/04 01:10:37;;;;;;;33.37;21.50;;;5.60;99.90;;;-143.91;100.00;62816.50;4981277;28;100631;-61
2021/03/04 01:13:05;;;;;;;32.43;21.03;;;5.70;99.90;;;-143.91;100.00;62816.50;4985559;28;100216;-61
2021/03/04 01:15:34;;;;;;;32.23;21.40;;;5.80;99.90;;;-143.91;100.00;62816.50;4981772;28;100285;-61
2021/03/04 01:18:02;;;;;;;32.40;21.07;;;5.70;99.90;;;-143.91;100.00;62816.50;4980844;28;101813;-61
2021/03/04 01:20:29;;;;;;;36.17;21.30;;;5.70;99.90;;;-143.91;100.00;62816.50;4984613;27;100400;-61
2021/03/04 01:22:56;;;;;;;35.93;21.90;;;5.70;99.90;;;-143.91;100.00;62816.50;4984314;28;100151;-61
2021/03/04 01:25:23;;;;;;;29.93;19.70;;;5.80;99.90;;;-143.91;100.00;62816.50;4988432;28;100106;-61
2021/03/04 01:27:51;;;;;;;35.73;21.00;;;5.80;99.90;;;-143.91;100.00;62816.50;4984822;28;101110;-61
2021/03/04 01:30:24;;;;;;;31.63;21.33;;;5.80;99.90;;;-143.91;100.00;62816.50;4984712;28;101410;-61
2021/03/04 01:32:50;;;;;;;33.47;20.73;;;5.70;99.90;;;-143.91;100.00;62816.50;4984783;28;100275;-61
2021/03/04 01:35:17;;;;;;;36.77;20.63;;;5.70;99.90;;;-143.91;100.00;62816.50;4984114;28;100190;-62
2021/03/04 01:37:44;;;;;;;37.17;21.70;;;5.70;99.90;;;-143.91;100.00;62816.50;4985005;28;101611;-60
2021/03/04 01:40:14;;;;;;;36.40;21.90;;;5.80;99.90;;;-143.91;100.00;62816.50;4984623;28;101459;-62
2021/03/04 01:42:41;;;;;;;34.07;21.00;;;5.70;99.90;;;-143.91;100.00;62816.50;4982449;28;100172;-62
2021/03/04 01:45:11;;;;;;;36.37;21.50;;;5.70;99.90;;;-143.91;100.00;62816.50;4987282;28;100533;-61
2021/03/04 01:47:44;;;;;;;35.40;22.03;;;5.70;99.90;;;-143.91;100.00;62816.50;4984083;28;101281;-62
2021/03/04 01:50:12;;;;;;;37.73;21.70;;;5.60;99.90;;;-143.91;100.00;62816.50;4984217;28;100562;-61
2021/03/04 01:52:38;;;;;;;37.57;22.50;;;5.70;99.90;;;-143.91;100.00;62816.50;4984389;28;100259;-61
2021/03/04 01:55:06;;;;;;;40.53;22.10;;;5.60;99.90;;;-143.91;100.00;62816.50;4984433;28;100402;-60
2021/03/04 01:57:33;;;;;;;32.97;21.40;;;5.70;99.90;;;-143.91;100.00;62816.50;4984302;28;101566;-62
2021/03/04 02:00:00;;;;;;;35.27;21.63;;;5.60;99.90;;;-143.91;100.00;62816.50;4984231;28;100650;-61
2021/03/04 02:03:32;;;;;;;33.17;20.47;;;5.70;99.90;;;-143.91;100.00;62816.50;4984654;28;100176;-61
2021/03/04 02:06:01;;;;;;;36.23;21.40;;;5.60;99.90;;;-143.91;100.00;62816.50;4984338;28;100439;-60
2021/03/04 02:08:34;;;;;;;34.37;21.00;;;5.80;99.90;;;-143.91;100.00;62816.50;4984212;28;100981;-61
2021/03/04 02:11:07;;;;;;;36.63;22.37;;;5.80;99.90;;;-143.91;100.00;62816.50;4965152;28;101449;-61
2021/03/04 02:13:41;;;;;;;38.40;22.80;;;5.80;99.90;;;-143.91;100.00;62816.50;4983670;28;100153;-61
2021/03/04 02:16:13;;;;;;;32.90;20.50;;;5.90;99.90;;;-143.91;100.00;62816.50;4984460;28;101011;-62
2021/03/04 02:18:43;;;;;;;33.50;21.83;;;5.90;99.90;;;-143.91;100.00;62816.50;4983933;28;101664;-61
2021/03/04 02:21:36;;;;;;;33.63;22.57;;;5.80;99.90;;;-143.91;100.00;62816.50;4984012;28;100653;-61
2021/03/04 02:24:32;;;;;;;35.97;22.20;;;6.00;99.90;;;-143.91;100.00;62816.50;4983775;28;100318;-62
2021/03/04 02:27:05;;;;;;;33.90;22.17;;;5.80;99.90;;;-143.91;100.00;62816.50;4983631;28;100143;-61
2021/03/04 02:29:38;;;;;;;33.83;21.97;;;5.90;99.90;;;-143.91;100.00;62816.50;4983772;28;100847;-61
2021/03/04 02:32:07;;;;;;;38.17;23.57;;;5.90;99.90;;;-143.91;100.00;62816.50;4982996;27;100945;-61
2021/03/04 02:34:34;;;;;;;35.30;22.10;;;5.90;99.90;;;-143.91;100.00;62816.50;4983525;28;100336;-61
2021/03/04 02:37:02;;;;;;;38.60;23.20;;;6.80;99.90;;;-143.91;100.00;62816.50;4983230;28;101063;-61
2021/03/04 02:39:31;;;;;;;38.27;24.27;;;5.80;99.90;;;-143.91;100.00;62816.50;4982652;28;101552;-61
2021/03/04 02:42:00;;;;;;;34.07;22.30;;;5.80;99.90;;;-143.91;100.00;62816.50;4964761;28;101364;-61
2021/03/04 02:44:28;;;;;;;38.87;23.60;;;5.90;99.90;;;-143.91;100.00;62816.50;4983759;28;100247;-61
2021/03/04 02:46:55;;;;;;;34.87;22.27;;;6.40;99.90;;;-143.91;100.00;62816.50;4983945;28;100173;-61
2021/03/04 02:49:23;;;;;;;33.57;23.07;;;6.30;99.90;;;-143.91;100.00;62816.50;4983419;28;101353;-61
2021/03/04 02:51:51;;;;;;;36.00;22.83;;;5.80;99.90;;;-143.91;100.00;62816.50;4984714;28;101477;-61
2021/03/04 02:54:18;;;;;;;39.07;23.33;;;5.80;99.90;;;-143.91;100.00;62816.50;4984234;28;100201;-61
2021/03/04 02:56:46;;;;;;;34.00;22.77;;;5.90;99.90;;;-143.91;100.00;62816.50;4983521;28;100293;-61
2021/03/04 02:59:14;;;;;;;33.33;22.70;;;6.00;99.90;;;-143.91;100.00;62816.50;4982840;28;101684;-61
2021/03/04 03:01:41;;;;;;;40.47;24.60;;;5.90;99.90;;;-143.91;100.00;62816.50;4983714;28;100802;-61
2021/03/04 03:04:09;;;;;;;40.60;24.00;;;5.90;99.90;;;-143.91;100.00;62816.50;4983242;28;99978;-61
2021/03/04 03:06:37;;;;;;;39.70;23.27;;;6.90;99.90;;;-143.91;100.00;62816.50;4990788;28;100281;-61
2021/03/04 03:09:05;;;;;;;39.23;23.43;;;6.60;99.90;;;-143.91;100.00;62816.50;4983606;28;100965;-61
2021/03/04 03:11:33;;;;;;;34.20;22.33;;;4.50;99.90;;;-143.91;100.00;62816.50;4983360;28;100466;-61
2021/03/04 03:14:01;;;;;;;38.57;24.70;;;5.90;99.90;;;-143.91;100.00;62816.50;4983306;28;100222;-61
2021/03/04 03:16:29;;;;;;;37.60;23.50;;;6.80;99.90;;;-143.91;100.00;62816.50;4964654;28;100712;-61
2021/03/04 03:18:56;;;;;;;43.03;24.97;;;6.20;99.90;;;-143.91;100.00;62816.50;4983170;28;100937;-60
2021/03/04 03:21:22;;;;;;;43.00;25.43;;;5.80;99.90;;;-143.91;100.00;62816.50;4983383;28;100258;-61
2021/03/04 03:23:49;;;;;;;37.27;24.27;;;5.80;99.90;;;-143.91;100.00;62816.50;4963965;28;100253;-60
2021/03/04 03:26:15;;;;;;;39.90;23.93;;;5.70;99.90;;;-143.91;100.00;62816.50;4983074;28;100222;-61
2021/03/04 03:28:42;;;;;;;38.77;24.67;;;5.70;99.90;;;-143.91;100.00;62816.50;4982451;28;101650;-61
2021/03/04 03:31:09;;;;;;;40.80;24.57;;;5.60;99.90;;;-143.91;100.00;62816.50;4982817;28;100433;-61
2021/03/04 03:33:36;;;;;;;35.13;22.83;;;5.60;99.90;;;-143.91;100.00;62816.50;4983024;28;100300;-61
2021/03/04 03:36:04;;;;;;;36.50;23.50;;;5.70;99.90;;;-143.91;100.00;62816.50;4982628;28;100137;-60
2021/03/04 03:38:31;;;;;;;40.87;24.77;;;5.70;99.90;;;-143.91;100.00;62816.50;4982672;28;101784;-61
2021/03/04 03:40:58;;;;;;;39.60;25.27;;;5.90;99.90;;;-143.91;100.00;62816.50;4983249;28;100467;-61
2021/03/04 03:43:27;;;;;;;36.80;23.50;;;5.90;99.90;;;-143.91;100.00;62816.50;4983118;27;100268;-64
2021/03/04 03:45:55;;;;;;;39.43;23.03;;;5.80;99.90;;;-143.91;100.00;62816.50;4982821;28;100453;-60
2021/03/04 03:48:23;;;;;;;37.23;22.90;;;6.10;99.90;;;-143.91;100.00;62816.50;4982599;28;101602;-63
2021/03/04 03:50:52;;;;;;;39.70;24.10;;;6.00;99.90;;;-143.91;100.00;62816.50;4982272;28;101375;-63
2021/03/04 03:53:20;;;;;;;38.47;23.23;;;6.00;99.90;;;-143.91;100.00;62816.50;4981742;28;100178;-63
2021/03/04 03:55:48;;;;;;;35.23;23.67;;;6.10;99.90;;;-143.91;100.00;62816.50;4982629;28;100557;-62
2021/03/04 03:58:18;;;;;;;38.43;22.40;;;6.10;99.90;;;-143.91;100.00;62816.50;4982273;28;100821;-62
2021/03/04 04:00:45;;;;;;;36.37;24.90;;;6.20;99.90;;;-143.91;100.00;62816.50;4982079;28;101589;-62
2021/03/04 04:03:12;;;;;;;40.40;26.77;;;6.20;99.90;;;-143.91;100.00;62816.50;4981955;28;100141;-63
2021/03/04 04:05:38;;;;;;;37.30;24.53;;;6.10;99.90;;;-143.91;100.00;62816.50;4982477;28;100233;-62
2021/03/04 04:08:06;;;;;;;40.97;25.63;;;6.20;99.90;;;-143.91;100.00;62816.50;4982094;28;101335;-63
2021/03/04 04:10:36;;;;;;;42.73;24.33;;;6.30;99.90;;;-143.91;100.00;62816.50;4982538;28;100803;-63
2021/03/04 04:13:03;;;;;;;41.40;24.90;;;6.30;99.90;;;-143.91;100.00;62816.50;4982685;28;100237;-62
2021/03/04 04:15:31;;;;;;;39.97;23.43;;;6.30;99.90;;;-143.91;100.00;62816.50;4982404;28;100157;-63
2021/03/04 04:18:00;;;;;;;37.77;26.23;;;6.20;99.90;;;-143.91;100.00;62816.50;4981369;28;100898;-63
2021/03/04 04:20:27;;;;;;;40.00;23.67;;;6.20;99.90;;;-143.91;100.00;62816.50;4982039;28;100639;-63
2021/03/04 04:22:55;;;;;;;40.43;25.30;;;6.30;99.90;;;-143.91;100.00;62816.50;4982087;28;100098;-63
2021/03/04 04:25:24;;;;;;;40.87;23.70;;;6.30;99.90;;;-143.91;100.00;62816.50;4981693;28;100267;-62
2021/03/04 04:27:52;;;;;;;40.20;25.63;;;6.30;99.90;;;-143.91;100.00;62816.50;4981887;28;101118;-62
2021/03/04 04:30:21;;;;;;;37.43;25.17;;;6.40;99.90;;;-143.91;100.00;62816.50;4981442;28;101631;-63
2021/03/04 04:32:47;;;;;;;37.80;25.33;;;6.30;99.90;;;-143.91;100.00;62816.50;4982258;28;100059;-62
2021/03/04 04:35:16;;;;;;;39.10;26.00;;;6.20;99.90;;;-143.91;100.00;62816.50;4982178;28;100012;-62
2021/03/04 04:37:43;;;;;;;41.77;24.73;;;6.20;99.90;;;-143.91;100.00;62816.50;4961867;28;101901;-62
2021/03/04 04:40:11;;;;;;;45.70;25.73;;;6.30;99.90;;;-143.91;100.00;62816.50;4962113;28;100906;-62
2021/03/04 04:42:39;;;;;;;38.90;24.40;;;6.30;99.90;;;-143.91;100.00;62816.50;4961519;28;99942;-63
2021/03/04 04:45:08;;;;;;;43.83;24.80;;;6.20;99.90;;;-143.91;100.00;62816.50;4962717;28;100605;-62
2021/03/04 04:47:35;;;;;;;42.67;25.67;;;6.20;99.90;;;-143.91;100.00;62816.50;4962292;28;101351;-62
2021/03/04 04:50:02;;;;;;;41.77;25.33;;;6.10;99.90;;;-143.91;100.00;62816.50;4961879;28;101112;-62
2021/03/04 04:52:29;;;;;;;38.27;24.73;;;6.10;99.90;;;-143.91;100.00;62816.50;4961970;28;100119;-62
2021/03/04 04:54:55;;;;;;;43.23;25.47;;;6.00;99.90;;;-143.91;100.00;62816.50;4964205;28;100062;-63
2021/03/04 04:57:22;;;;;;;40.37;25.37;;;6.10;99.90;;;-143.91;100.00;62816.50;4965008;28;101538;-61
2021/03/04 04:59:50;;;;;;;41.43;26.57;;;5.90;99.90;;;-143.91;100.00;62816.50;4965451;28;100478;-62
2021/03/04 05:02:16;;;;;;;47.87;28.90;;;6.40;99.90;;;-143.91;100.00;62816.50;4964750;28;100076;-62
2021/03/04 05:04:43;;;;;;;46.90;27.63;;;5.80;99.90;;;-143.91;100.00;62816.50;4976354;28;100210;-63
2021/03/04 05:07:09;;;;;;;40.87;25.93;;;5.90;99.90;;;-143.91;100.00;62816.50;4984057;28;101430;-61
2021/03/04 05:09:35;;;;;;;39.80;25.87;;;6.00;99.90;;;-143.91;100.00;62816.50;4984812;28;100334;-62
2021/03/04 05:12:02;;;;;;;41.70;26.73;;;5.70;99.90;;;-143.91;100.00;62816.50;4984530;28;100318;-62
2021/03/04 05:14:28;;;;;;;42.23;25.63;;;5.70;99.90;;;-143.91;100.00;62816.50;4983106;28;100503;-62
2021/03/04 05:16:56;;;;;;;39.10;24.57;;;5.60;99.90;;;-143.91;100.00;62816.50;4984757;28;101045;-61
2021/03/04 05:19:22;;;;;;;43.67;26.03;;;5.70;99.90;;;-143.91;100.00;62816.50;4985305;28;100509;-61
2021/03/04 05:21:51;;;;;;;40.80;26.53;;;5.50;99.90;;;-143.91;100.00;62816.50;4984391;28;100257;-61
2021/03/04 05:24:17;;;;;;;40.27;25.57;;;5.50;99.90;;;-143.91;100.00;62816.50;4985655;28;100256;-63
2021/03/04 05:26:43;;;;;;;41.13;25.77;;;5.50;99.90;;;-143.91;100.00;62816.50;4984647;28;100315;-61
2021/03/04 05:29:10;;;;;;;43.90;28.30;;;5.40;99.90;;;-143.91;100.00;62816.50;4985021;28;101155;-62
2021/03/04 05:31:36;;;;;;;40.23;24.53;;;6.20;99.90;;;-143.91;100.00;62816.50;4983793;28;100039;-61
2021/03/04 05:34:04;;;;;;;42.00;26.07;;;5.40;99.90;;;-143.91;100.00;62816.50;4984808;28;100299;-61
2021/03/04 05:36:31;;;;;;;45.63;27.00;;;5.30;99.90;;;-143.91;100.00;62816.50;4984310;28;101321;-61
2021/03/04 05:38:57;;;;;;;40.30;24.73;;;5.30;99.90;;;-143.91;100.00;62816.50;4984512;28;100508;-62
2021/03/04 05:41:24;;;;;;;39.90;25.83;;;5.20;99.90;;;-143.91;100.00;62816.50;4984322;28;100154;-61
2021/03/04 05:43:51;;;;;;;42.20;26.00;;;5.10;99.90;;;-143.91;100.00;62816.50;4984540;28;100105;-61
2021/03/04 05:46:21;;;;;;;39.07;26.07;;;5.00;99.90;;;-143.91;100.00;62816.50;4984535;28;101002;-61
2021/03/04 05:48:50;;;;;;;38.83;26.17;;;5.00;99.90;;;-143.91;100.00;62816.50;4984421;28;101268;-62
2021/03/04 05:51:23;;;;;;;41.87;26.63;;;5.00;99.90;;;-143.91;100.00;62816.50;4984151;28;99981;-61
2021/03/04 05:53:56;;;;;;;41.23;26.33;;;4.90;99.90;;;-143.91;100.00;62816.50;4985391;28;100371;-61
2021/03/04 05:56:24;;;;;;;42.00;26.33;;;4.90;99.90;;;-143.91;100.00;62816.50;4984561;28;100302;-61
2021/03/04 05:58:51;;;;;;;43.67;27.90;;;4.80;99.90;;;-143.91;100.00;62816.50;4983937;28;101709;-61
2021/03/04 06:01:19;;;;;;;47.40;29.23;;;4.80;99.90;;;-143.91;100.00;62816.50;4984143;28;100174;-61
2021/03/04 06:03:46;;;;;;;46.87;27.80;;;4.70;99.90;;;-143.91;100.00;62816.50;4984517;28;100021;-61
2021/03/04 06:06:12;;;;;;;46.00;28.40;;;4.70;99.90;;;-143.91;100.00;62816.50;4983120;28;101136;-61
2021/03/04 06:08:40;;;;;;;40.30;28.27;;;4.80;99.90;;;-143.91;100.00;62816.50;4983711;28;101296;-61
2021/03/04 06:11:06;;;;;;;45.90;28.03;;;4.70;99.90;;;-143.91;100.00;62816.50;4984191;28;100369;-62
2021/03/04 06:13:33;;;;;;;55.57;30.43;;;4.80;99.90;;;-143.91;100.00;62816.50;4985115;28;100279;-62
2021/03/04 06:16:01;;;;;;;48.13;30.23;;;4.60;99.90;;;-143.91;100.00;62816.50;4983737;28;101025;-61
2021/03/04 06:18:40;;;;;;;46.53;29.37;;;4.70;99.90;;;-143.91;100.00;62816.50;4983366;28;100289;-61
2021/03/04 06:21:21;;;;;;;45.57;28.00;;;4.80;99.90;;;-143.91;100.00;62816.50;4982895;28;100333;-61
2021/03/04 06:23:49;;;;;;;45.63;29.47;;;4.80;99.90;;;-143.91;100.00;62816.50;4983695;28;100453;-62
2021/03/04 06:26:38;;;;;;;43.23;28.10;;;4.90;99.90;;;-143.91;100.00;62816.50;4983713;28;101165;-61
2021/03/04 06:29:16;;;;;;;47.97;30.40;;;4.80;99.90;;;-143.91;100.00;62816.50;4983559;28;100530;-61
2021/03/04 06:31:44;;;;;;;51.43;29.07;;;4.70;99.90;;;-143.91;100.00;62816.50;4984137;28;100668;-62
2021/03/04 06:34:18;;;;;;;43.63;28.23;;;4.70;99.90;;;-143.91;100.00;62816.50;4983985;28;99962;-61
2021/03/04 06:36:57;;;;;;;52.07;30.80;;;4.80;99.90;;;-143.91;100.00;62816.50;4983590;28;100665;-62
2021/03/04 06:39:25;;;;;;;49.83;29.60;;;4.90;99.90;;;-143.91;100.00;62816.50;4984002;28;100861;-62
2021/03/04 06:42:04;;;;;;;44.40;28.10;;;4.80;99.90;;;-143.91;100.00;62816.50;4983982;28;100346;-63
2021/03/04 06:44:40;;;;;;;43.53;27.20;;;4.90;99.90;;;-143.91;100.00;62816.50;4984059;28;100084;-62
2021/03/04 06:47:08;;;;;;;46.93;29.53;;;4.90;99.90;;;-143.91;100.00;62816.50;4982981;28;100061;-62
2021/03/04 06:49:41;;;;;;;47.53;27.93;;;4.80;99.90;;;-143.91;100.00;62816.50;4983705;28;100917;-63
2021/03/04 06:52:10;;;;;;;47.67;29.53;;;4.90;99.90;;;-143.91;100.00;62816.50;4983408;28;100018;-63
2021/03/04 06:54:37;;;;;;;42.33;29.00;;;4.80;99.90;;;-143.91;100.00;62816.50;4983923;28;100212;-63
2021/03/04 06:57:11;;;;;;;45.07;28.03;;;4.80;99.90;;;-143.91;100.00;62816.50;4983441;28;101160;-62
2021/03/04 06:59:42;;;;;;;44.23;27.80;;;5.00;99.90;;;-143.91;100.00;62816.50;4983104;28;100500;-61
2021/03/04 07:02:09;;;;;;;43.40;26.43;;;4.80;99.90;;;-143.91;100.00;62816.50;4983498;28;100237;-62
2021/03/04 07:04:35;;;;;;;46.57;27.43;;;4.80;99.90;;;-143.91;100.00;62816.50;4983984;28;100324;-62
2021/03/04 07:07:04;;;;;;;48.33;30.13;;;6.00;99.90;;;-143.91;100.00;62816.50;4983046;28;101132;-62
2021/03/04 07:09:35;;;;;;;47.40;31.37;;;4.90;99.90;;;-143.91;100.00;62816.50;4983017;28;100787;-63
2021/03/04 07:12:02;;;;;;;51.67;30.57;;;5.00;99.90;;;-143.91;100.00;62816.50;4982302;28;100244;-62
2021/03/04 07:14:30;;;;;;;48.70;31.73;;;5.10;99.90;;;-143.91;100.00;62816.50;4983215;28;100323;-62
2021/03/04 07:16:57;;;;;;;42.60;28.87;;;5.00;99.90;;;-143.91;100.00;62816.50;4982437;27;101065;-62
2021/03/04 07:19:28;;;;;;;54.73;31.00;;;5.20;99.90;;;-143.91;100.00;62816.50;4983247;28;100871;-63
2021/03/04 07:21:56;;;;;;;50.13;31.23;;;5.20;99.90;;;-143.91;100.00;62816.50;4983108;28;100299;-62
2021/03/04 07:24:24;;;;;;;47.63;29.37;;;5.80;99.90;;;-143.91;100.00;62816.50;4983130;28;100161;-62
2021/03/04 07:26:51;;;;;;;46.10;28.97;;;5.60;99.90;;;-143.91;100.00;62816.50;4982575;28;101700;-62
2021/03/04 07:29:21;;;;;;;50.10;29.57;;;5.90;99.90;;;-143.91;100.00;62816.50;4983343;28;101480;-64
2021/03/04 07:31:48;;;;;;;43.60;28.13;;;6.10;99.90;;;-143.91;100.00;62816.50;4983002;28;99981;-62
2021/03/04 07:34:16;;;;;;;46.43;28.83;;;6.40;99.90;;;-143.91;100.00;62816.50;4982841;28;100377;-63
2021/03/04 07:36:46;;;;;;;41.77;27.57;;;6.60;99.90;;;-143.91;100.00;62816.50;4982302;28;100859;-62
2021/03/04 07:39:13;;;;;;;45.50;27.90;;;6.80;99.90;;;-143.91;100.00;62816.50;4983272;28;100821;-62
2021/03/04 07:41:42;;;;;;;46.60;27.73;;;7.00;99.90;;;-143.91;100.00;62816.50;4982831;28;99936;-62
2021/03/04 07:44:09;;;;;;;41.47;26.53;;;7.50;99.90;;;-143.91;100.00;62816.50;4982730;28;100170;-62
2021/03/04 07:46:39;;;;;;;47.60;29.03;;;7.60;99.90;;;-143.91;100.00;62816.50;4982618;28;102030;-62
2021/03/04 07:49:08;;;;;;;42.50;28.17;;;7.90;99.90;;;-143.91;100.00;62816.50;4983002;28;101106;-62
2021/03/04 07:51:46;;;;;;;42.10;27.60;;;8.10;99.90;;;-143.91;100.00;62816.50;4982622;28;100216;-63
2021/03/04 07:54:13;;;;;;;40.90;27.90;;;8.30;99.90;;;-143.91;100.00;62816.50;4983051;28;101493;-63
2021/03/04 07:56:40;;;;;;;40.73;27.53;;;8.60;99.90;;;-143.91;100.00;62816.50;4982187;28;101654;-61
2021/03/04 07:59:13;;;;;;;43.47;27.90;;;8.70;99.90;;;-143.91;100.00;62816.50;4982753;28;100773;-63
2021/03/04 08:01:42;;;;;;;41.00;27.67;;;8.70;99.90;;;-143.91;100.00;62816.50;4981793;28;100009;-62
2021/03/04 08:04:20;;;;;;;38.73;26.53;;;9.00;99.90;;;-143.91;100.00;62816.50;4982493;28;100455;-63
2021/03/04 08:06:48;;;;;;;43.37;27.97;;;9.20;99.90;;;-143.91;100.00;62816.50;4981831;28;102552;-62
2021/03/04 08:09:28;;;;;;;40.27;26.13;;;9.30;99.90;;;-143.91;100.00;62816.50;4982542;28;99870;-62
2021/03/04 08:12:08;;;;;;;42.37;29.07;;;10.40;99.90;;;-143.91;100.00;62816.50;4982286;28;100325;-62
2021/03/04 08:14:35;;;;;;;39.60;26.97;;;9.60;99.90;;;-143.91;100.00;62816.50;4982307;28;99985;-62
2021/03/04 08:17:04;;;;;;;40.30;27.60;;;9.70;99.90;;;-143.91;100.00;62816.50;4981424;28;101699;-63
2021/03/04 08:19:32;;;;;;;39.27;25.80;;;10.00;99.90;;;-143.91;100.00;62816.50;4982629;28;100652;-62
2021/03/04 08:22:07;;;;;;;37.83;26.87;;;10.10;99.90;;;-143.91;100.00;62816.50;4981813;28;100350;-62
2021/03/04 08:24:36;;;;;;;43.80;29.77;;;10.20;99.90;;;-143.91;100.00;62816.50;4982289;28;100051;-62
2021/03/04 08:27:04;;;;;;;46.93;29.77;;;10.40;99.90;;;-143.91;100.00;62816.50;4981319;28;101397;-63
2021/03/04 08:29:31;;;;;;;47.43;30.77;;;10.60;99.90;;;-143.91;100.00;62816.50;4983566;27;100360;-62
2021/03/04 08:32:01;;;;;;;46.60;30.80;;;10.50;99.90;;;-143.91;100.00;62816.50;4984977;28;101594;-63
2021/03/04 08:34:37;;;;;;;47.80;32.10;;;10.80;99.90;;;-143.91;100.00;62816.50;4985606;28;100237;-62
2021/03/04 08:37:06;;;;;;;47.63;32.47;;;10.80;99.90;;;-143.91;100.00;62816.50;4985491;28;101179;-64
2021/03/04 08:39:34;;;;;;;44.10;32.50;;;11.00;99.90;;;-143.91;100.00;62816.50;4988978;28;100737;-63
2021/03/04 08:42:05;;;;;;;49.07;32.07;;;11.00;99.90;;;-143.91;100.00;62816.50;4985352;28;100240;-63
2021/03/04 08:44:32;;;;;;;49.17;33.17;;;11.10;99.90;;;-143.91;100.00;62816.50;4985905;28;100230;-62
2021/03/04 08:46:58;;;;;;;47.03;32.83;;;11.00;99.90;;;-143.91;100.00;62816.50;4985299;28;101193;-62
2021/03/04 08:49:25;;;;;;;45.43;33.07;;;10.90;99.90;;;-143.91;100.00;62816.50;4985082;28;100503;-62
2021/03/04 08:51:53;;;;;;;48.30;33.80;;;10.70;99.90;;;-143.91;100.00;62816.50;4984545;28;100139;-63
2021/03/04 08:54:25;;;;;;;50.33;33.70;;;10.70;99.90;;;-143.91;100.00;62816.50;4985445;28;100269;-62
2021/03/04 08:56:54;;;;;;;44.83;32.63;;;10.70;99.90;;;-143.91;100.00;62816.50;4984621;28;100627;-62
2021/03/04 08:59:22;;;;;;;53.77;35.13;;;10.70;99.90;;;-143.91;100.00;62816.50;4984411;28;100920;-62
2021/03/04 09:01:48;;;;;;;49.03;34.60;;;10.70;99.90;;;-143.91;100.00;62816.50;4985165;28;100473;-62
2021/03/04 09:04:23;;;;;;;52.90;34.93;;;10.60;99.90;;;-143.91;100.00;62816.50;4982708;28;100055;-62
2021/03/04 09:06:50;;;;;;;52.80;35.67;;;9.20;99.90;;;-143.91;100.00;62816.50;4984893;28;100086;-63
2021/03/04 09:09:26;;;;;;;53.90;36.60;;;10.90;99.90;;;-143.91;100.00;62816.50;4988386;28;102293;-63
2021/03/04 09:11:53;;;;;;;54.33;37.37;;;11.10;99.90;;;-143.91;100.00;62816.50;4985643;28;100164;-63
2021/03/04 09:14:28;;;;;;;57.67;37.13;;;11.20;99.90;;;-143.91;100.00;62816.50;4999790;28;100605;-62
2021/03/04 09:16:56;;;;;;;53.30;37.67;;;11.40;99.90;;;-143.91;100.00;62816.50;4991620;28;101536;-63
2021/03/04 09:19:27;;;;;;;51.33;37.93;;;11.60;99.90;;;-143.91;100.00;62816.50;4985354;28;100379;-62
2021/03/04 09:21:54;;;;;;;54.17;38.13;;;11.40;99.90;;;-143.91;100.00;62816.50;4985169;28;100401;-62
2021/03/04 09:24:21;;;;;;;65.67;38.13;;;11.40;99.90;;;-143.91;100.00;62816.50;4984473;28;100447;-62
2021/03/04 09:26:48;;;;;;;53.13;38.67;;;11.30;99.90;;;-143.91;100.00;62816.50;4984499;28;100949;-63
2021/03/04 09:29:15;;;;;;;55.43;37.43;;;11.30;99.90;;;-143.91;100.00;62816.50;4984471;28;101626;-62
2021/03/04 09:31:50;;;;;;;53.57;37.33;;;11.30;99.90;;;-143.91;100.00;62816.50;4984811;28;100097;-63
2021/03/04 09:34:17;;;;;;;59.90;39.30;;;11.40;99.90;;;-143.91;100.00;62816.50;4985008;28;100194;-63
2021/03/04 09:36:43;;;;;;;51.03;36.57;;;11.30;99.90;;;-143.91;100.00;62816.50;4984709;28;100732;-62
2021/03/04 09:39:10;;;;;;;59.63;40.47;;;10.60;99.90;;;-143.91;100.00;62816.50;4984353;28;101317;-61
2021/03/04 09:41:36;;;;;;;56.90;39.47;;;12.30;99.90;;;-143.91;100.00;62816.50;4983944;28;100092;-62
2021/03/04 09:44:07;;;;;;;57.50;39.03;;;11.50;99.90;;;-143.91;100.00;62816.50;4984719;28;100012;-62
2021/03/04 09:46:38;;;;;;;60.33;43.00;;;11.40;99.90;;;-143.91;100.00;62816.50;4982125;28;102056;-63
2021/03/04 09:49:10;;;;;;;56.60;41.60;;;11.30;99.90;;;-143.91;100.00;62816.50;4984089;28;101387;-62
2021/03/04 09:51:38;;;;;;;61.13;41.57;;;11.40;99.90;;;-143.91;100.00;62816.50;4983920;28;100426;-63
2021/03/04 09:54:06;;;;;;;63.07;45.43;;;11.60;99.90;;;-143.91;100.00;62816.50;4984404;28;100070;-63